Time;durP1;ratioP1;P1;durP2;ratioP2;P2;SDS_P1;SDS_P2;PMS_P1;PMS_P2;Temp;Humidity;BMP_temperature;BMP_pressure;BME280_temperature;BME280_humidity;BME280_pressure;Samples;Min_cycle;Max_cycle;Signal;HPM_P1;HPM_P2
2021/06/17 00:02:20;;;;;;;9.63;8.07;;;;;;;;;;5095485;28;20039;-65
2021/06/17 00:04:46;;;;;;;10.75;7.68;;;;;;;;;;5100645;28;20032;-65
2021/06/17 00:07:13;;;;;;;11.02;7.53;;;;;;;;;;5089493;28;20066;-65
2021/06/17 00:09:39;;;;;;;9.10;7.22;;;;;;;;;;5099708;28;20077;-65
2021/06/17 00:12:06;;;;;;;9.00;7.82;;;;;;;;;;5096771;28;20048;-65
2021/06/17 00:14:33;;;;;;;9.98;8.25;;;;;;;;;;5094406;28;20047;-65
2021/06/17 00:17:00;;;;;;;11.68;8.13;;;;;;;;;;5102411;28;20035;-65
2021/06/17 00:19:26;;;;;;;10.88;7.75;;;;;;;;;;5099967;28;20475;-65
2021/06/17 00:21:53;;;;;;;10.55;8.02;;;;;;;;;;5094719;28;20121;-65
2021/06/17 00:24:19;;;;;;;9.45;7.85;;;;;;;;;;5098537;28;20208;-65
2021/06/17 00:26:45;;;;;;;9.93;7.88;;;;;;;;;;5098012;28;20063;-65
2021/06/17 00:29:12;;;;;;;9.45;8.55;;;;;;;;;;5095336;28;20090;-65
2021/06/17 00:31:39;;;;;;;9.93;8.13;;;;;;;;;;5100047;28;20047;-65
2021/06/17 00:34:08;;;;;;;9.82;8.82;;;;;;;;;;5093047;28;20039;-65
2021/06/17 00:36:35;;;;;;;10.55;8.98;;;;;;;;;;5097361;28;20542;-65
2021/06/17 00:39:01;;;;;;;9.43;8.52;;;;;;;;;;5087856;28;20036;-65
2021/06/17 00:41:27;;;;;;;10.43;9.27;;;;;;;;;;5096853;28;20124;-65
2021/06/17 00:43:53;;;;;;;11.10;9.05;;;;;;;;;;5091257;28;20043;-65
2021/06/17 00:46:19;;;;;;;11.02;8.90;;;;;;;;;;5098260;28;20040;-65
2021/06/17 00:48:45;;;;;;;10.20;9.18;;;;;;;;;;5087326;28;20035;-65
2021/06/17 00:51:11;;;;;;;11.32;9.45;;;;;;;;;;5108819;28;20039;-65
2021/06/17 00:53:38;;;;;;;10.57;9.48;;;;;;;;;;5099861;28;20126;-65
2021/06/17 00:56:04;;;;;;;13.02;10.60;;;;;;;;;;5091337;28;20480;-65
2021/06/17 00:58:30;;;;;;;12.90;9.43;;;;;;;;;;5106515;28;20040;-65
2021/06/17 01:00:56;;;;;;;12.15;9.75;;;;;;;;;;5088975;28;20063;-65
2021/06/17 01:03:23;;;;;;;13.20;10.65;;;;;;;;;;5098311;28;20044;-65
2021/06/17 01:05:50;;;;;;;11.43;10.30;;;;;;;;;;5088256;28;20289;-65
2021/06/17 01:08:24;;;;;;;11.35;10.07;;;;;;;;;;5093579;28;20081;-65
2021/06/17 01:11:08;;;;;;;12.48;11.18;;;;;;;;;;5088174;28;20056;-65
2021/06/17 01:13:37;;;;;;;15.55;11.15;;;;;;;;;;5096082;28;20036;-65
2021/06/17 01:16:06;;;;;;;13.00;11.63;;;;;;;;;;5092211;28;20453;-65
2021/06/17 01:18:33;;;;;;;12.15;10.88;;;;;;;;;;5100322;28;20051;-65
2021/06/17 01:21:02;;;;;;;12.55;11.25;;;;;;;;;;5094209;28;20042;-65
2021/06/17 01:23:49;;;;;;;12.20;10.50;;;;;;;;;;5094668;28;20050;-65
2021/06/17 01:26:39;;;;;;;14.63;11.00;;;;;;;;;;5096241;28;20051;-64
2021/06/17 01:29:07;;;;;;;12.43;11.18;;;;;;;;;;5092072;28;20042;-64
2021/06/17 01:31:34;;;;;;;18.15;11.68;;;;;;;;;;5088289;28;20040;-64
2021/06/17 01:34:01;;;;;;;13.73;12.43;;;;;;;;;;5098897;28;20043;-64
2021/06/17 01:36:38;;;;;;;13.70;11.73;;;;;;;;;;5095457;28;20054;-64
2021/06/17 01:39:07;;;;;;;14.18;12.65;;;;;;;;;;5094800;28;20597;-64
2021/06/17 01:41:35;;;;;;;14.55;12.13;;;;;;;;;;5093368;28;20043;-64
2021/06/17 01:44:02;;;;;;;13.30;12.00;;;;;;;;;;5099286;28;20069;-64
2021/06/17 01:46:28;;;;;;;14.43;13.02;;;;;;;;;;5090981;28;20047;-64
2021/06/17 01:48:55;;;;;;;14.18;12.77;;;;;;;;;;5093007;28;20364;-64
2021/06/17 01:51:22;;;;;;;15.88;14.30;;;;;;;;;;5093947;28;20043;-64
2021/06/17 01:53:49;;;;;;;15.65;13.98;;;;;;;;;;5100796;28;20071;-64
2021/06/17 01:56:20;;;;;;;14.85;13.25;;;;;;;;;;5091206;28;20430;-65
2021/06/17 01:58:47;;;;;;;16.50;14.80;;;;;;;;;;5095628;28;20044;-65
2021/06/17 02:01:14;;;;;;;18.60;16.42;;;;;;;;;;5098770;28;20508;-65
2021/06/17 02:03:43;;;;;;;16.45;14.88;;;;;;;;;;5089913;28;20044;-65
2021/06/17 02:06:09;;;;;;;17.52;15.82;;;;;;;;;;5092406;28;20036;-65
2021/06/17 02:08:36;;;;;;;17.95;16.23;;;;;;;;;;5096349;28;20065;-65
2021/06/17 02:11:02;;;;;;;18.50;15.98;;;;;;;;;;5092349;28;20044;-65
2021/06/17 02:13:31;;;;;;;17.73;15.98;;;;;;;;;;5089504;28;21167;-65
2021/06/17 02:15:58;;;;;;;18.67;16.73;;;;;;;;;;5095812;28;20040;-65
2021/06/17 02:18:25;;;;;;;18.98;17.05;;;;;;;;;;5098080;28;20036;-65
2021/06/17 02:20:52;;;;;;;17.80;16.08;;;;;;;;;;5097745;28;20079;-65
2021/06/17 02:23:19;;;;;;;19.67;17.92;;;;;;;;;;5092460;28;20194;-65
2021/06/17 02:25:47;;;;;;;19.42;17.70;;;;;;;;;;5108358;28;20035;-65
2021/06/17 02:28:15;;;;;;;20.02;17.90;;;;;;;;;;5100795;28;20471;-64
2021/06/17 02:30:42;;;;;;;18.55;16.77;;;;;;;;;;5107450;28;20264;-64
2021/06/17 02:33:10;;;;;;;18.85;17.00;;;;;;;;;;5094400;28;20036;-64
2021/06/17 02:35:37;;;;;;;19.65;17.90;;;;;;;;;;5105674;28;20036;-64
2021/06/17 02:38:05;;;;;;;19.42;17.83;;;;;;;;;;5095881;28;20063;-64
2021/06/17 02:40:33;;;;;;;20.73;18.88;;;;;;;;;;5096974;28;20074;-64
2021/06/17 02:43:00;;;;;;;20.77;18.98;;;;;;;;;;5099070;28;20036;-64
2021/06/17 02:45:28;;;;;;;19.58;17.80;;;;;;;;;;5098891;28;20703;-64
2021/06/17 02:47:55;;;;;;;19.63;17.88;;;;;;;;;;5097674;28;20035;-64
2021/06/17 02:50:22;;;;;;;21.95;20.05;;;;;;;;;;5092446;28;20075;-64
2021/06/17 02:52:48;;;;;;;21.83;19.60;;;;;;;;;;5108792;28;20486;-64
2021/06/17 02:55:14;;;;;;;20.58;18.88;;;;;;;;;;5096157;28;20092;-64
2021/06/17 02:57:40;;;;;;;23.13;20.92;;;;;;;;;;5101132;28;20073;-65
2021/06/17 03:00:14;;;;;;;21.65;19.60;;;;;;;;;;5097670;28;20048;-64
2021/06/17 03:02:59;;;;;;;21.98;19.88;;;;;;;;;;5099545;28;20062;-65
2021/06/17 03:05:33;;;;;;;22.73;20.42;;;;;;;;;;5094290;28;20047;-64
2021/06/17 03:08:03;;;;;;;24.10;21.73;;;;;;;;;;5096294;28;20464;-64
2021/06/17 03:10:30;;;;;;;22.95;20.58;;;;;;;;;;5101736;28;20301;-64
2021/06/17 03:12:56;;;;;;;23.70;21.60;;;;;;;;;;5103770;28;20348;-64
2021/06/17 03:15:25;;;;;;;23.10;20.88;;;;;;;;;;5096573;28;20039;-64
2021/06/17 03:17:51;;;;;;;21.60;19.55;;;;;;;;;;5098224;28;20050;-64
2021/06/17 03:20:18;;;;;;;24.75;22.55;;;;;;;;;;5103338;28;20093;-64
2021/06/17 03:22:47;;;;;;;25.45;22.92;;;;;;;;;;5099813;28;20108;-64
2021/06/17 03:25:15;;;;;;;23.83;21.73;;;;;;;;;;5093465;28;20112;-64
2021/06/17 03:27:41;;;;;;;21.98;19.92;;;;;;;;;;5106482;28;20150;-64
2021/06/17 03:30:07;;;;;;;24.77;22.67;;;;;;;;;;5091911;28;20057;-64
2021/06/17 03:32:36;;;;;;;23.45;21.27;;;;;;;;;;5097470;28;20128;-65
2021/06/17 03:35:02;;;;;;;26.05;23.85;;;;;;;;;;5096176;28;20071;-64
2021/06/17 03:37:29;;;;;;;25.98;23.55;;;;;;;;;;5107814;28;20063;-64
2021/06/17 03:39:57;;;;;;;26.73;24.23;;;;;;;;;;5096532;28;20731;-64
2021/06/17 03:42:23;;;;;;;25.95;23.38;;;;;;;;;;5094362;28;20084;-64
2021/06/17 03:44:51;;;;;;;26.73;24.00;;;;;;;;;;5108369;28;20503;-64
2021/06/17 03:47:18;;;;;;;27.63;25.02;;;;;;;;;;5093171;28;20051;-64
2021/06/17 03:49:44;;;;;;;25.77;23.58;;;;;;;;;;5102913;28;20046;-64
2021/06/17 03:52:13;;;;;;;25.48;23.13;;;;;;;;;;5094064;28;20051;-64
2021/06/17 03:54:40;;;;;;;25.77;23.35;;;;;;;;;;5106163;28;20510;-64
2021/06/17 03:57:07;;;;;;;26.85;24.55;;;;;;;;;;5095042;28;20044;-64
2021/06/17 03:59:36;;;;;;;25.52;22.90;;;;;;;;;;5098029;28;20032;-64
2021/06/17 04:02:02;;;;;;;26.50;24.02;;;;;;;;;;5094213;28;20318;-64
2021/06/17 04:04:28;;;;;;;26.83;24.38;;;;;;;;;;5101211;28;20118;-64
2021/06/17 04:06:57;;;;;;;28.45;25.88;;;;;;;;;;5089684;28;20036;-64
2021/06/17 04:09:27;;;;;;;27.63;24.92;;;;;;;;;;5099951;28;20039;-64
2021/06/17 04:11:58;;;;;;;28.98;26.17;;;;;;;;;;5089411;28;20573;-64
2021/06/17 04:14:25;;;;;;;28.42;25.92;;;;;;;;;;5099536;28;20044;-64
2021/06/17 04:16:52;;;;;;;27.45;24.95;;;;;;;;;;5098792;28;20035;-64
2021/06/17 04:19:22;;;;;;;27.90;25.30;;;;;;;;;;5099403;28;20139;-64
2021/06/17 04:21:50;;;;;;;25.67;23.38;;;;;;;;;;5094380;28;20032;-64
2021/06/17 04:24:18;;;;;;;25.85;23.52;;;;;;;;;;5099830;28;20397;-64
2021/06/17 04:26:44;;;;;;;26.77;24.13;;;;;;;;;;5101545;28;20035;-64
2021/06/17 04:29:10;;;;;;;26.55;24.25;;;;;;;;;;5091997;28;20403;-64
2021/06/17 04:31:37;;;;;;;26.40;23.92;;;;;;;;;;5095114;28;20094;-64
2021/06/17 04:34:03;;;;;;;24.48;22.40;;;;;;;;;;5092262;28;20125;-64
2021/06/17 04:36:30;;;;;;;26.70;24.00;;;;;;;;;;5098010;28;20068;-64
2021/06/17 04:38:56;;;;;;;24.67;22.17;;;;;;;;;;5093144;28;20034;-64
2021/06/17 04:41:22;;;;;;;24.27;21.95;;;;;;;;;;5099934;28;20045;-64
2021/06/17 04:43:48;;;;;;;23.75;21.58;;;;;;;;;;5097766;28;20096;-64
2021/06/17 04:46:15;;;;;;;24.52;22.23;;;;;;;;;;5103455;28;20039;-65
2021/06/17 04:48:43;;;;;;;23.30;21.13;;;;;;;;;;5091099;28;20484;-64
2021/06/17 04:51:10;;;;;;;22.52;20.42;;;;;;;;;;5104860;28;20480;-64
2021/06/17 04:53:36;;;;;;;22.98;20.63;;;;;;;;;;5096321;28;20502;-64
2021/06/17 04:56:03;;;;;;;23.60;21.38;;;;;;;;;;5100825;28;20058;-64
2021/06/17 04:58:29;;;;;;;22.35;20.17;;;;;;;;;;5080887;28;20055;-65
2021/06/17 05:00:55;;;;;;;21.80;19.60;;;;;;;;;;5102689;28;20036;-64
2021/06/17 05:03:21;;;;;;;22.65;20.48;;;;;;;;;;5100452;28;20332;-65
2021/06/17 05:05:49;;;;;;;20.60;18.60;;;;;;;;;;5099144;28;20042;-65
2021/06/17 05:11:03;;;;;;;20.73;18.83;;;;;;;;;;5096040;28;20079;-65
2021/06/17 05:13:31;;;;;;;21.17;18.95;;;;;;;;;;5095412;28;20054;-65
2021/06/17 05:15:58;;;;;;;21.48;19.33;;;;;;;;;;5089274;28;20070;-65
2021/06/17 05:18:27;;;;;;;21.27;19.25;;;;;;;;;;5094602;28;20415;-65
2021/06/17 05:20:54;;;;;;;22.88;20.67;;;;;;;;;;5090865;28;20031;-65
2021/06/17 05:23:21;;;;;;;19.95;17.83;;;;;;;;;;5092589;28;20424;-65
2021/06/17 05:25:48;;;;;;;19.50;17.67;;;;;;;;;;5092093;28;20039;-65
2021/06/17 05:28:17;;;;;;;19.60;17.50;;;;;;;;;;5105418;28;20467;-65
2021/06/17 05:30:43;;;;;;;18.67;16.98;;;;;;;;;;5096481;28;20424;-65
2021/06/17 05:33:11;;;;;;;19.13;17.52;;;;;;;;;;5106423;27;20035;-65
2021/06/17 05:35:37;;;;;;;18.33;16.70;;;;;;;;;;5096722;28;20443;-65
2021/06/17 05:38:04;;;;;;;19.83;16.40;;;;;;;;;;5102338;27;20032;-65
2021/06/17 05:40:31;;;;;;;19.50;17.67;;;;;;;;;;5091395;28;20105;-65
2021/06/17 05:42:57;;;;;;;17.52;16.08;;;;;;;;;;5092620;28;20123;-65
2021/06/17 05:45:23;;;;;;;18.10;16.35;;;;;;;;;;5095603;28;20066;-65
2021/06/17 05:47:50;;;;;;;19.40;17.38;;;;;;;;;;5099934;28;20040;-65
2021/06/17 05:50:16;;;;;;;16.65;15.02;;;;;;;;;;5088719;28;20460;-65
2021/06/17 05:52:42;;;;;;;17.33;15.73;;;;;;;;;;5103018;28;20056;-66
2021/06/17 05:55:10;;;;;;;15.95;14.50;;;;;;;;;;5101567;28;20042;-67
2021/06/17 05:57:37;;;;;;;15.20;13.80;;;;;;;;;;5091055;28;20043;-66
2021/06/17 06:00:04;;;;;;;18.63;13.82;;;;;;;;;;5097000;28;20399;-67
2021/06/17 06:02:31;;;;;;;18.00;13.25;;;;;;;;;;5088828;28;20046;-67
2021/06/17 06:04:57;;;;;;;15.55;13.98;;;;;;;;;;5100343;28;20054;-67
2021/06/17 06:07:23;;;;;;;15.73;13.05;;;;;;;;;;5094490;28;20040;-67
2021/06/17 06:09:50;;;;;;;12.85;11.65;;;;;;;;;;5096133;28;20128;-67
2021/06/17 06:12:16;;;;;;;15.57;11.93;;;;;;;;;;5088771;28;20044;-67
2021/06/17 06:14:43;;;;;;;12.80;11.60;;;;;;;;;;5104648;28;20107;-67
2021/06/17 06:17:09;;;;;;;13.38;12.07;;;;;;;;;;5091758;28;20043;-67
2021/06/17 06:19:36;;;;;;;12.48;10.52;;;;;;;;;;5095768;28;20032;-66
2021/06/17 06:22:04;;;;;;;13.45;12.02;;;;;;;;;;5092582;28;20044;-66
2021/06/17 06:24:31;;;;;;;13.02;11.82;;;;;;;;;;5094217;28;20046;-66
2021/06/17 06:27:00;;;;;;;11.35;10.32;;;;;;;;;;5091190;28;20082;-66
2021/06/17 06:29:26;;;;;;;12.93;11.75;;;;;;;;;;5095428;28;20047;-66
2021/06/17 06:31:52;;;;;;;11.95;10.60;;;;;;;;;;5088823;28;20456;-66
2021/06/17 06:34:18;;;;;;;12.90;11.57;;;;;;;;;;5090218;28;20079;-66
2021/06/17 06:36:45;;;;;;;11.30;10.27;;;;;;;;;;5104685;28;20110;-66
2021/06/17 06:39:11;;;;;;;11.80;10.60;;;;;;;;;;5090355;28;20024;-66
2021/06/17 06:41:39;;;;;;;11.18;10.07;;;;;;;;;;5096636;28;20054;-66
2021/06/17 06:44:05;;;;;;;12.93;10.10;;;;;;;;;;5099400;28;20035;-66
2021/06/17 06:46:32;;;;;;;11.02;10.02;;;;;;;;;;5095542;28;20126;-66
2021/06/17 06:48:59;;;;;;;11.00;9.90;;;;;;;;;;5091598;28;20107;-66
2021/06/17 06:51:25;;;;;;;12.35;10.13;;;;;;;;;;5104444;28;20127;-66
2021/06/17 06:53:51;;;;;;;11.48;8.85;;;;;;;;;;5093599;28;20153;-66
2021/06/17 06:56:17;;;;;;;12.00;9.57;;;;;;;;;;5097317;28;20046;-67
2021/06/17 06:58:43;;;;;;;11.45;9.60;;;;;;;;;;5093653;28;20040;-67
2021/06/17 07:01:09;;;;;;;11.25;9.48;;;;;;;;;;5097590;28;20047;-67
2021/06/17 07:03:36;;;;;;;11.20;8.60;;;;;;;;;;5095851;27;20051;-67
2021/06/17 07:06:02;;;;;;;10.25;9.05;;;;;;;;;;5106815;27;20062;-67
2021/06/17 07:08:28;;;;;;;9.90;8.75;;;;;;;;;;5100350;27;20047;-67
2021/06/17 07:10:55;;;;;;;11.70;9.77;;;;;;;;;;5097542;28;20050;-67
2021/06/17 07:13:22;;;;;;;10.05;9.00;;;;;;;;;;5105620;28;20114;-67
2021/06/17 07:15:48;;;;;;;8.98;7.90;;;;;;;;;;5095539;28;20039;-67
2021/06/17 07:18:14;;;;;;;9.80;7.82;;;;;;;;;;5094311;28;20038;-67
2021/06/17 07:20:40;;;;;;;11.90;8.70;;;;;;;;;;5098122;28;20142;-67
2021/06/17 07:23:07;;;;;;;9.55;8.52;;;;;;;;;;5100350;28;20036;-67
2021/06/17 07:25:33;;;;;;;10.82;8.25;;;;;;;;;;5100322;28;20036;-67
2021/06/17 07:27:59;;;;;;;9.57;8.52;;;;;;;;;;5095524;28;20044;-67
2021/06/17 07:30:25;;;;;;;10.50;8.88;;;;;;;;;;5105645;28;20042;-67
2021/06/17 07:32:52;;;;;;;13.52;8.55;;;;;;;;;;5096496;28;20434;-67
2021/06/17 07:35:18;;;;;;;12.82;8.95;;;;;;;;;;5093964;28;20047;-67
2021/06/17 07:37:44;;;;;;;9.68;8.68;;;;;;;;;;5102245;28;20448;-68
2021/06/17 07:40:12;;;;;;;12.25;8.73;;;;;;;;;;5101734;28;20171;-69
2021/06/17 07:42:39;;;;;;;9.90;8.35;;;;;;;;;;5092676;28;20047;-66
2021/06/17 07:45:06;;;;;;;9.23;8.07;;;;;;;;;;5089493;28;20050;-66
2021/06/17 07:47:32;;;;;;;10.40;8.52;;;;;;;;;;5102827;28;20074;-66
2021/06/17 07:49:58;;;;;;;9.07;8.02;;;;;;;;;;5099325;28;20043;-66
2021/06/17 07:52:24;;;;;;;9.38;8.48;;;;;;;;;;5106958;28;20040;-66
2021/06/17 07:54:51;;;;;;;10.90;7.28;;;;;;;;;;5097650;28;20085;-66
2021/06/17 07:57:17;;;;;;;10.90;7.40;;;;;;;;;;5096239;28;20071;-66
2021/06/17 07:59:43;;;;;;;8.07;7.28;;;;;;;;;;5102245;28;20047;-66
2021/06/17 08:02:09;;;;;;;10.15;8.10;;;;;;;;;;5094089;28;20142;-66
2021/06/17 08:04:35;;;;;;;9.05;7.65;;;;;;;;;;5100561;28;20126;-66
2021/06/17 08:07:02;;;;;;;10.10;7.25;;;;;;;;;;5095519;28;20459;-66
2021/06/17 08:09:28;;;;;;;11.10;7.43;;;;;;;;;;5098407;28;20036;-66
2021/06/17 08:11:54;;;;;;;10.48;7.25;;;;;;;;;;5097186;28;20071;-67
2021/06/17 08:14:28;;;;;;;8.50;7.13;;;;;;;;;;5098926;28;20028;-67
2021/06/17 08:16:56;;;;;;;11.02;7.22;;;;;;;;;;5093288;28;20115;-66
2021/06/17 08:19:40;;;;;;;8.75;6.15;;;;;;;;;;5095663;28;20067;-66
2021/06/17 08:22:07;;;;;;;6.30;5.75;;;;;;;;;;5094539;28;20039;-66
2021/06/17 08:24:36;;;;;;;7.25;6.43;;;;;;;;;;5097718;28;20132;-66
2021/06/17 08:27:03;;;;;;;9.52;5.82;;;;;;;;;;5096683;28;20055;-66
2021/06/17 08:29:29;;;;;;;7.50;6.72;;;;;;;;;;5097481;28;20114;-66
2021/06/17 08:31:56;;;;;;;8.15;6.68;;;;;;;;;;5093919;28;20476;-66
2021/06/17 08:34:24;;;;;;;7.30;6.60;;;;;;;;;;5099066;28;20035;-67
2021/06/17 08:36:51;;;;;;;10.32;6.30;;;;;;;;;;5099138;28;20032;-67
2021/06/17 08:39:17;;;;;;;8.48;6.63;;;;;;;;;;5103936;28;20036;-67
2021/06/17 08:41:44;;;;;;;10.77;6.57;;;;;;;;;;5099010;28;20615;-67
2021/06/17 08:44:10;;;;;;;6.60;5.93;;;;;;;;;;5094258;28;20078;-67
2021/06/17 08:46:38;;;;;;;6.90;5.50;;;;;;;;;;5086710;28;20040;-67
2021/06/17 08:49:04;;;;;;;7.72;5.97;;;;;;;;;;5106638;27;20087;-67
2021/06/17 08:51:32;;;;;;;8.13;5.28;;;;;;;;;;5098937;28;20549;-67
2021/06/17 08:53:58;;;;;;;8.30;5.43;;;;;;;;;;5099215;28;20804;-67
2021/06/17 08:56:25;;;;;;;8.45;5.40;;;;;;;;;;5106264;27;20071;-67
2021/06/17 08:58:53;;;;;;;6.82;5.38;;;;;;;;;;5094497;28;20044;-67
2021/06/17 09:01:21;;;;;;;5.68;4.68;;;;;;;;;;5096497;28;20131;-68
2021/06/17 09:03:47;;;;;;;6.80;5.43;;;;;;;;;;5098496;28;20035;-68
2021/06/17 09:06:16;;;;;;;6.70;5.22;;;;;;;;;;5076230;28;20050;-68
2021/06/17 09:08:43;;;;;;;8.73;5.32;;;;;;;;;;5099413;28;20047;-65
2021/06/17 09:11:19;;;;;;;9.63;5.15;;;;;;;;;;5091868;28;20145;-65
2021/06/17 09:13:46;;;;;;;5.28;4.72;;;;;;;;;;5098189;28;20501;-65
2021/06/17 09:16:23;;;;;;;5.78;4.72;;;;;;;;;;5098901;28;20044;-65
2021/06/17 09:18:49;;;;;;;9.77;4.97;;;;;;;;;;5098846;28;20063;-65
2021/06/17 09:21:15;;;;;;;7.78;4.93;;;;;;;;;;5097898;28;20039;-65
2021/06/17 09:23:43;;;;;;;6.43;5.22;;;;;;;;;;5085882;28;20031;-65
2021/06/17 09:26:12;;;;;;;6.30;4.55;;;;;;;;;;5094525;28;20589;-65
2021/06/17 09:28:47;;;;;;;9.05;4.05;;;;;;;;;;5090033;28;20044;-65
2021/06/17 09:31:17;;;;;;;5.07;4.10;;;;;;;;;;5092926;28;20036;-65
2021/06/17 09:33:45;;;;;;;7.50;3.90;;;;;;;;;;5095903;28;20040;-66
2021/06/17 09:36:11;;;;;;;6.32;3.45;;;;;;;;;;5095246;28;20054;-65
2021/06/17 09:38:45;;;;;;;37.95;34.45;;;;;;;;;;5090098;28;20032;-66
2021/06/17 09:41:11;;;;;;;7.45;3.47;;;;;;;;;;5105160;28;20464;-66
2021/06/17 09:43:43;;;;;;;4.45;3.25;;;;;;;;;;5092732;28;20039;-65
2021/06/17 09:46:11;;;;;;;4.82;3.45;;;;;;;;;;5101412;28;20043;-65
2021/06/17 09:48:37;;;;;;;6.10;3.30;;;;;;;;;;5089744;28;20053;-65
2021/06/17 09:51:22;;;;;;;4.90;2.95;;;;;;;;;;5097228;28;20032;-65
2021/06/17 09:53:48;;;;;;;4.80;3.72;;;;;;;;;;5087930;28;20055;-65
2021/06/17 09:56:15;;;;;;;6.03;3.53;;;;;;;;;;5099904;28;20040;-66
2021/06/17 09:58:47;;;;;;;4.78;3.50;;;;;;;;;;5088864;28;20043;-66
2021/06/17 10:01:16;;;;;;;4.82;3.40;;;;;;;;;;5095879;28;20408;-66
2021/06/17 10:03:59;;;;;;;7.95;3.35;;;;;;;;;;5092591;28;20112;-67
2021/06/17 10:06:25;;;;;;;7.85;3.20;;;;;;;;;;5099035;28;20110;-66
2021/06/17 10:08:51;;;;;;;4.95;3.00;;;;;;;;;;5092899;28;20038;-67
2021/06/17 10:11:18;;;;;;;5.10;3.40;;;;;;;;;;5097918;28;20047;-66
2021/06/17 10:13:44;;;;;;;5.45;3.08;;;;;;;;;;5091535;28;20048;-66
2021/06/17 10:16:17;;;;;;;3.22;2.70;;;;;;;;;;5097053;28;20431;-65
2021/06/17 10:18:44;;;;;;;5.00;3.17;;;;;;;;;;5096161;28;20039;-67
2021/06/17 10:21:13;;;;;;;4.13;2.97;;;;;;;;;;5080602;28;20078;-67
2021/06/17 10:23:40;;;;;;;5.80;3.10;;;;;;;;;;5103007;28;20411;-66
2021/06/17 10:26:06;;;;;;;4.85;3.03;;;;;;;;;;5090755;28;20471;-67
2021/06/17 10:28:51;;;;;;;6.05;3.13;;;;;;;;;;5093648;28;20032;-67
2021/06/17 10:31:40;;;;;;;6.47;4.57;;;;;;;;;;5102983;28;20501;-67
2021/06/17 10:34:30;;;;;;;5.60;2.90;;;;;;;;;;5092606;28;20040;-68
2021/06/17 10:37:06;;;;;;;5.05;2.55;;;;;;;;;;5094531;28;20065;-68
2021/06/17 10:39:43;;;;;;;3.10;2.60;;;;;;;;;;5096424;28;20410;-66
2021/06/17 10:42:13;;;;;;;3.13;2.25;;;;;;;;;;5096931;28;20314;-67
2021/06/17 10:44:47;;;;;;;7.57;2.75;;;;;;;;;;5109293;28;20036;-67
2021/06/17 10:47:32;;;;;;;5.80;2.58;;;;;;;;;;5099345;28;20051;-67
2021/06/17 10:50:02;;;;;;;6.43;3.10;;;;;;;;;;5099195;28;20088;-66
2021/06/17 10:52:29;;;;;;;4.60;2.38;;;;;;;;;;5105582;28;20146;-68
2021/06/17 10:54:58;;;;;;;4.70;2.67;;;;;;;;;;5088236;28;20126;-68
2021/06/17 10:58:01;;;;;;;3.13;2.38;;;;;;;;;;5082483;28;20147;-68
2021/06/17 11:00:28;;;;;;;5.97;2.83;;;;;;;;;;5097264;28;20048;-68
2021/06/17 11:02:59;;;;;;;3.40;2.75;;;;;;;;;;5100613;28;20131;-68
2021/06/17 11:05:31;;;;;;;4.03;2.70;;;;;;;;;;5103667;28;20051;-66
2021/06/17 11:08:16;;;;;;;4.65;2.47;;;;;;;;;;5101682;28;20407;-67
2021/06/17 11:11:01;;;;;;;4.93;2.40;;;;;;;;;;5101594;28;20407;-67
2021/06/17 11:13:34;;;;;;;3.42;2.17;;;;;;;;;;5098191;28;20516;-67
2021/06/17 11:16:05;;;;;;;4.00;2.67;;;;;;;;;;5094068;28;20067;-67
2021/06/17 11:18:58;;;;;;;4.20;2.80;;;;;;;;;;5107763;28;20066;-66
2021/06/17 11:21:25;;;;;;;3.23;2.40;;;;;;;;;;5097296;28;20391;-67
2021/06/17 11:24:12;;;;;;;5.40;2.60;;;;;;;;;;5106398;28;20081;-67
2021/06/17 11:26:41;;;;;;;4.13;2.67;;;;;;;;;;5096137;28;20078;-67
2021/06/17 11:29:11;;;;;;;4.05;2.42;;;;;;;;;;5102449;28;20113;-68
2021/06/17 11:31:37;;;;;;;7.43;2.38;;;;;;;;;;5097913;28;20032;-67
2021/06/17 11:34:03;;;;;;;4.88;2.00;;;;;;;;;;5094734;28;20040;-68
2021/06/17 11:36:30;;;;;;;5.45;2.33;;;;;;;;;;5099534;28;20107;-69
2021/06/17 11:39:02;;;;;;;15.52;14.13;;;;;;;;;;5095932;28;20042;-70
2021/06/17 11:41:30;;;;;;;4.73;2.27;;;;;;;;;;5098354;28;20055;-69
2021/06/17 11:44:04;;;;;;;4.53;2.22;;;;;;;;;;5090365;28;20316;-69
2021/06/17 11:46:32;;;;;;;4.18;2.35;;;;;;;;;;5101600;28;20047;-69
2021/06/17 11:49:00;;;;;;;4.38;2.05;;;;;;;;;;5096821;28;20143;-69
2021/06/17 11:51:26;;;;;;;2.95;2.28;;;;;;;;;;5101895;28;20042;-67
2021/06/17 11:53:53;;;;;;;3.92;2.35;;;;;;;;;;5103423;28;20070;-68
2021/06/17 11:56:23;;;;;;;4.20;2.05;;;;;;;;;;5105170;28;20054;-67
2021/06/17 11:58:50;;;;;;;3.42;2.08;;;;;;;;;;5097101;28;20046;-67
2021/06/17 12:01:16;;;;;;;4.35;2.40;;;;;;;;;;5101499;28;20024;-67
2021/06/17 12:03:57;;;;;;;5.75;2.15;;;;;;;;;;5094743;28;20073;-65
2021/06/17 12:06:23;;;;;;;8.18;2.42;;;;;;;;;;5101585;28;20036;-67
2021/06/17 12:09:09;;;;;;;4.63;2.00;;;;;;;;;;5096856;28;20411;-67
2021/06/17 12:11:36;;;;;;;3.60;1.70;;;;;;;;;;5101326;28;20118;-67
2021/06/17 12:14:04;;;;;;;2.53;1.63;;;;;;;;;;5100273;28;20126;-67
2021/06/17 12:16:30;;;;;;;4.57;1.98;;;;;;;;;;5099314;28;20035;-67
2021/06/17 12:18:57;;;;;;;4.00;1.80;;;;;;;;;;5100380;28;20046;-66
2021/06/17 12:21:28;;;;;;;4.47;2.15;;;;;;;;;;5104429;28;20576;-66
2021/06/17 12:23:55;;;;;;;3.95;1.80;;;;;;;;;;5094281;28;20070;-67
2021/06/17 12:26:21;;;;;;;3.15;1.60;;;;;;;;;;5101521;28;20040;-67
2021/06/17 12:28:50;;;;;;;4.43;1.92;;;;;;;;;;5095838;28;20134;-67
2021/06/17 12:31:27;;;;;;;5.20;1.70;;;;;;;;;;5102633;28;20125;-67
2021/06/17 12:34:04;;;;;;;3.53;2.00;;;;;;;;;;5103729;28;20417;-69
2021/06/17 12:36:30;;;;;;;3.35;1.65;;;;;;;;;;5101081;28;20043;-66
2021/06/17 12:39:07;;;;;;;6.55;1.92;;;;;;;;;;5106268;28;20036;-66
2021/06/17 12:41:40;;;;;;;4.78;1.83;;;;;;;;;;5093634;28;20055;-70
2021/06/17 12:44:06;;;;;;;4.97;1.63;;;;;;;;;;5102947;28;20050;-69
2021/06/17 12:46:36;;;;;;;5.00;1.60;;;;;;;;;;5099180;28;20287;-66
2021/06/17 12:54:23;;;;;;;4.47;1.38;;;;;;;;;;5102333;28;20080;-70
2021/06/17 12:56:57;;;;;;;3.65;1.55;;;;;;;;;;5092637;28;20047;-70
2021/06/17 12:59:34;;;;;;;5.90;2.00;;;;;;;;;;5082453;28;20062;-68
2021/06/17 13:02:02;;;;;;;3.25;1.70;;;;;;;;;;5099330;28;20402;-69
2021/06/17 13:04:29;;;;;;;2.28;1.58;;;;;;;;;;5091233;28;20062;-70
2021/06/17 13:06:55;;;;;;;2.53;1.80;;;;;;;;;;5100183;28;20051;-69
2021/06/17 13:09:22;;;;;;;4.60;1.73;;;;;;;;;;5097951;28;21098;-71
2021/06/17 13:12:04;;;;;;;3.58;1.75;;;;;;;;;;5100860;28;20043;-71
2021/06/17 13:14:30;;;;;;;4.28;1.42;;;;;;;;;;5097603;28;20066;-70
2021/06/17 13:17:06;;;;;;;8.55;1.85;;;;;;;;;;5096313;28;20032;-70
2021/06/17 13:19:33;;;;;;;2.70;1.52;;;;;;;;;;5094187;28;20047;-70
2021/06/17 13:22:04;;;;;;;7.38;3.67;;;;;;;;;;5102431;28;20064;-70
2021/06/17 13:24:40;;;;;;;3.65;1.80;;;;;;;;;;5095768;28;20075;-70
2021/06/17 13:27:13;;;;;;;4.32;1.58;;;;;;;;;;5100349;28;20506;-68
2021/06/17 13:29:58;;;;;;;5.07;1.65;;;;;;;;;;5098425;28;20043;-69
2021/06/17 13:32:24;;;;;;;2.85;1.55;;;;;;;;;;5100455;28;20187;-69
2021/06/17 13:34:51;;;;;;;3.15;1.95;;;;;;;;;;5094424;28;20036;-68
2021/06/17 13:37:17;;;;;;;3.88;2.00;;;;;;;;;;5099536;28;20218;-68
2021/06/17 13:39:45;;;;;;;5.50;2.55;;;;;;;;;;5093682;28;20040;-69
2021/06/17 13:42:11;;;;;;;7.82;2.75;;;;;;;;;;5102653;28;20106;-69
2021/06/17 13:44:38;;;;;;;6.30;2.70;;;;;;;;;;5093050;28;20443;-69
2021/06/17 13:47:04;;;;;;;6.40;3.33;;;;;;;;;;5104654;28;20047;-69
2021/06/17 13:49:31;;;;;;;3.40;3.10;;;;;;;;;;5099199;28;20151;-69
2021/06/17 13:51:57;;;;;;;7.32;3.50;;;;;;;;;;5102709;28;20451;-69
2021/06/17 13:54:24;;;;;;;10.77;3.42;;;;;;;;;;5098402;28;20078;-69
2021/06/17 13:56:51;;;;;;;4.10;3.47;;;;;;;;;;5094403;28;20145;-69
2021/06/17 13:59:17;;;;;;;5.82;3.60;;;;;;;;;;5103827;28;20054;-69
2021/06/17 14:01:44;;;;;;;5.93;3.67;;;;;;;;;;5091281;28;20078;-69
2021/06/17 14:04:16;;;;;;;6.85;3.47;;;;;;;;;;5094694;28;20431;-69
2021/06/17 14:06:42;;;;;;;5.75;3.50;;;;;;;;;;5093882;28;20500;-69
2021/06/17 14:09:08;;;;;;;6.35;3.33;;;;;;;;;;5099192;28;20050;-70
2021/06/17 14:11:34;;;;;;;5.03;3.30;;;;;;;;;;5095230;28;20060;-69
2021/06/17 14:14:00;;;;;;;5.55;3.40;;;;;;;;;;5099994;28;20080;-69
2021/06/17 14:16:26;;;;;;;6.20;5.28;;;;;;;;;;5094115;28;20488;-70
2021/06/17 14:18:53;;;;;;;6.20;4.55;;;;;;;;;;5100304;28;20036;-69
2021/06/17 14:21:20;;;;;;;10.63;4.80;;;;;;;;;;5099680;28;20034;-68
2021/06/17 14:23:46;;;;;;;5.45;4.10;;;;;;;;;;5099714;28;20088;-69
2021/06/17 14:26:12;;;;;;;6.07;4.43;;;;;;;;;;5093529;28;20496;-69
2021/06/17 14:28:38;;;;;;;6.93;4.43;;;;;;;;;;5100516;28;20151;-69
2021/06/17 14:31:04;;;;;;;6.53;3.95;;;;;;;;;;5091201;28;20074;-69
2021/06/17 14:33:30;;;;;;;5.85;4.75;;;;;;;;;;5096243;28;20027;-69
2021/06/17 14:35:57;;;;;;;7.57;4.38;;;;;;;;;;5091675;28;20402;-69
2021/06/17 14:38:23;;;;;;;7.32;4.10;;;;;;;;;;5098044;28;20079;-68
2021/06/17 14:40:49;;;;;;;5.55;3.55;;;;;;;;;;5101830;28;20434;-68
2021/06/17 14:43:15;;;;;;;8.68;3.95;;;;;;;;;;5095338;28;20043;-69
2021/06/17 14:45:41;;;;;;;6.55;3.38;;;;;;;;;;5099756;28;20134;-72
2021/06/17 14:48:08;;;;;;;7.00;3.47;;;;;;;;;;5095262;28;20055;-73